sensor_id;sensor_type;location;lat;lon;timestamp;pressure;altitude;pressure_sealevel;temperature;humidity
69247;BME280;56358;56.328;43.992;2023-04-26T00:00:53;99620.53;;;11.67;85.37
69247;BME280;56358;56.328;43.992;2023-04-26T00:02:54;99615.16;;;11.67;85.62
69247;BME280;56358;56.328;43.992;2023-04-26T00:04:55;99589.19;;;11.58;85.76
69247;BME280;56358;56.328;43.992;2023-04-26T00:06:58;99614.84;;;11.70;85.59
69247;BME280;56358;56.328;43.992;2023-04-26T00:09:00;99607.03;;;11.77;85.35
69247;BME280;56358;56.328;43.992;2023-04-26T00:11:00;99604.34;;;11.77;85.38
69247;BME280;56358;56.328;43.992;2023-04-26T00:13:01;99585.78;;;11.66;85.11
69247;BME280;56358;56.328;43.992;2023-04-26T00:15:03;99584.47;;;11.70;85.40
69247;BME280;56358;56.328;43.992;2023-04-26T00:17:06;99596.72;;;11.82;85.41
69247;BME280;56358;56.328;43.992;2023-04-26T00:19:06;99577.56;;;11.67;85.06
69247;BME280;56358;56.328;43.992;2023-04-26T00:21:09;99587.41;;;11.77;85.09
69247;BME280;56358;56.328;43.992;2023-04-26T00:23:10;99574.63;;;11.61;85.64
69247;BME280;56358;56.328;43.992;2023-04-26T00:25:11;99519.47;;;11.38;85.21
69247;BME280;56358;56.328;43.992;2023-04-26T00:27:13;99578.81;;;11.73;85.16
69247;BME280;56358;56.328;43.992;2023-04-26T00:29:14;99570.75;;;11.73;85.47
69247;BME280;56358;56.328;43.992;2023-04-26T00:31:15;99447.13;;;10.91;84.88
69247;BME280;56358;56.328;43.992;2023-04-26T00:33:16;99502.44;;;11.30;85.09
69247;BME280;56358;56.328;43.992;2023-04-26T00:35:16;99575.84;;;11.76;85.70
69247;BME280;56358;56.328;43.992;2023-04-26T00:37:17;99569.03;;;11.72;85.36
69247;BME280;56358;56.328;43.992;2023-04-26T00:39:18;99550.56;;;11.69;85.10
69247;BME280;56358;56.328;43.992;2023-04-26T00:41:19;99537.88;;;11.61;85.28
69247;BME280;56358;56.328;43.992;2023-04-26T00:43:19;99559.03;;;11.74;85.28
69247;BME280;56358;56.328;43.992;2023-04-26T00:45:20;99544.94;;;11.62;85.43
69247;BME280;56358;56.328;43.992;2023-04-26T00:47:21;99527.66;;;11.47;85.69
69247;BME280;56358;56.328;43.992;2023-04-26T00:49:23;99553.97;;;11.71;85.52
69247;BME280;56358;56.328;43.992;2023-04-26T00:51:25;99511.25;;;11.50;85.70
69247;BME280;56358;56.328;43.992;2023-04-26T00:53:26;99542.91;;;11.74;85.88
69247;BME280;56358;56.328;43.992;2023-04-26T00:55:27;99537.84;;;11.71;85.67
69247;BME280;56358;56.328;43.992;2023-04-26T00:57:28;99545.75;;;11.72;85.35
69247;BME280;56358;56.328;43.992;2023-04-26T00:59:28;99392.25;;;10.85;85.81
69247;BME280;56358;56.328;43.992;2023-04-26T01:01:29;99523.16;;;11.65;85.44
69247;BME280;56358;56.328;43.992;2023-04-26T01:03:30;99539.38;;;11.73;85.50
69247;BME280;56358;56.328;43.992;2023-04-26T01:05:31;99541.38;;;11.71;85.41
69247;BME280;56358;56.328;43.992;2023-04-26T01:07:32;99522.41;;;11.73;85.32
69247;BME280;56358;56.328;43.992;2023-04-26T01:09:33;99494.81;;;11.63;85.53
69247;BME280;56358;56.328;43.992;2023-04-26T01:11:34;99435.69;;;11.27;84.89
69247;BME280;56358;56.328;43.992;2023-04-26T01:13:37;99515.47;;;11.80;85.22
69247;BME280;56358;56.328;43.992;2023-04-26T01:15:37;99521.66;;;11.81;85.19
69247;BME280;56358;56.328;43.992;2023-04-26T01:17:45;99513.22;;;11.76;85.30
69247;BME280;56358;56.328;43.992;2023-04-26T01:19:47;99509.38;;;11.78;84.91
69247;BME280;56358;56.328;43.992;2023-04-26T01:21:48;99518.44;;;11.77;85.52
69247;BME280;56358;56.328;43.992;2023-04-26T01:23:50;99487.13;;;11.68;85.35
69247;BME280;56358;56.328;43.992;2023-04-26T01:25:51;99517.28;;;11.80;85.24
69247;BME280;56358;56.328;43.992;2023-04-26T01:27:53;99503.69;;;11.81;85.27
69247;BME280;56358;56.328;43.992;2023-04-26T01:29:53;99499.94;;;11.74;85.29
69247;BME280;56358;56.328;43.992;2023-04-26T01:31:54;99474.16;;;11.63;85.41
69247;BME280;56358;56.328;43.992;2023-04-26T01:33:55;99429.03;;;11.31;85.59
69247;BME280;56358;56.328;43.992;2023-04-26T01:35:55;99492.72;;;11.74;85.13
69247;BME280;56358;56.328;43.992;2023-04-26T01:37:56;99484.16;;;11.71;85.09
69247;BME280;56358;56.328;43.992;2023-04-26T01:39:57;99427.16;;;11.31;85.33
69247;BME280;56358;56.328;43.992;2023-04-26T01:41:58;99478.47;;;11.74;85.20
69247;BME280;56358;56.328;43.992;2023-04-26T01:43:59;99480.44;;;11.72;85.26
69247;BME280;56358;56.328;43.992;2023-04-26T01:46:00;99484.38;;;11.78;85.27
69247;BME280;56358;56.328;43.992;2023-04-26T01:48:01;99386.00;;;11.22;85.36
69247;BME280;56358;56.328;43.992;2023-04-26T01:50:02;99476.78;;;11.73;85.59
69247;BME280;56358;56.328;43.992;2023-04-26T01:52:04;99470.97;;;11.78;85.48
69247;BME280;56358;56.328;43.992;2023-04-26T01:54:04;99477.88;;;11.80;85.14
69247;BME280;56358;56.328;43.992;2023-04-26T01:56:06;99467.88;;;11.72;85.58
69247;BME280;56358;56.328;43.992;2023-04-26T01:58:06;99387.91;;;11.30;85.72
69247;BME280;56358;56.328;43.992;2023-04-26T02:00:08;99468.78;;;11.81;85.45
69247;BME280;56358;56.328;43.992;2023-04-26T02:02:09;99458.53;;;11.77;85.41
69247;BME280;56358;56.328;43.992;2023-04-26T02:04:09;99465.28;;;11.81;84.93
69247;BME280;56358;56.328;43.992;2023-04-26T02:06:10;99411.13;;;11.49;84.85
69247;BME280;56358;56.328;43.992;2023-04-26T02:08:11;99368.44;;;11.28;84.88
69247;BME280;56358;56.328;43.992;2023-04-26T02:10:12;99385.47;;;11.37;85.21
69247;BME280;56358;56.328;43.992;2023-04-26T02:12:12;99374.56;;;11.38;85.20
69247;BME280;56358;56.328;43.992;2023-04-26T02:14:13;99437.47;;;11.72;85.17
69247;BME280;56358;56.328;43.992;2023-04-26T02:16:15;99451.03;;;11.80;85.07
69247;BME280;56358;56.328;43.992;2023-04-26T02:18:16;99458.75;;;11.83;85.10
69247;BME280;56358;56.328;43.992;2023-04-26T02:20:17;99421.69;;;11.69;85.22
69247;BME280;56358;56.328;43.992;2023-04-26T02:22:18;99427.44;;;11.74;85.19
69247;BME280;56358;56.328;43.992;2023-04-26T02:24:19;99301.44;;;11.00;85.31
69247;BME280;56358;56.328;43.992;2023-04-26T02:26:20;99438.25;;;11.82;85.48
69247;BME280;56358;56.328;43.992;2023-04-26T02:28:21;99444.34;;;11.84;85.21
69247;BME280;56358;56.328;43.992;2023-04-26T02:30:22;99416.63;;;11.66;85.57
69247;BME280;56358;56.328;43.992;2023-04-26T02:32:22;99449.16;;;11.81;85.48
69247;BME280;56358;56.328;43.992;2023-04-26T02:34:23;99433.38;;;11.78;85.64
69247;BME280;56358;56.328;43.992;2023-04-26T02:36:24;99432.22;;;11.80;85.31
69247;BME280;56358;56.328;43.992;2023-04-26T02:38:25;99425.97;;;11.80;85.64
69247;BME280;56358;56.328;43.992;2023-04-26T02:40:26;99417.19;;;11.69;85.57
69247;BME280;56358;56.328;43.992;2023-04-26T02:42:27;99338.94;;;11.28;85.62
69247;BME280;56358;56.328;43.992;2023-04-26T02:44:29;99297.38;;;10.96;85.93
69247;BME280;56358;56.328;43.992;2023-04-26T02:46:30;99434.19;;;11.78;85.75
69247;BME280;56358;56.328;43.992;2023-04-26T02:48:31;99426.97;;;11.79;86.10
69247;BME280;56358;56.328;43.992;2023-04-26T02:50:32;99441.41;;;11.78;85.94
69247;BME280;56358;56.328;43.992;2023-04-26T02:52:33;99404.03;;;11.66;85.98
69247;BME280;56358;56.328;43.992;2023-04-26T02:54:33;99414.25;;;11.81;86.04
69247;BME280;56358;56.328;43.992;2023-04-26T02:56:35;99405.38;;;11.80;86.39
69247;BME280;56358;56.328;43.992;2023-04-26T02:58:35;99408.06;;;11.80;86.28
69247;BME280;56358;56.328;43.992;2023-04-26T03:00:36;99414.09;;;11.82;86.46
69247;BME280;56358;56.328;43.992;2023-04-26T03:02:37;99400.06;;;11.70;86.68
69247;BME280;56358;56.328;43.992;2023-04-26T03:04:37;99405.13;;;11.73;86.73
69247;BME280;56358;56.328;43.992;2023-04-26T03:06:39;99403.28;;;11.74;86.74
69247;BME280;56358;56.328;43.992;2023-04-26T03:08:40;99390.63;;;11.66;86.89
69247;BME280;56358;56.328;43.992;2023-04-26T03:10:41;99405.13;;;11.73;86.71
69247;BME280;56358;56.328;43.992;2023-04-26T03:12:43;99362.94;;;11.48;86.92
69247;BME280;56358;56.328;43.992;2023-04-26T03:14:44;99388.63;;;11.68;87.19
69247;BME280;56358;56.328;43.992;2023-04-26T03:16:44;99388.47;;;11.70;87.41
69247;BME280;56358;56.328;43.992;2023-04-26T03:18:45;99390.56;;;11.76;87.60
69247;BME280;56358;56.328;43.992;2023-04-26T03:20:46;99389.63;;;11.67;87.29
69247;BME280;56358;56.328;43.992;2023-04-26T03:22:47;99375.16;;;11.60;87.39
69247;BME280;56358;56.328;43.992;2023-04-26T03:24:48;99344.69;;;11.33;87.20
69247;BME280;56358;56.328;43.992;2023-04-26T03:26:49;99396.00;;;11.66;87.50
69247;BME280;56358;56.328;43.992;2023-04-26T03:28:49;99388.63;;;11.68;87.28
69247;BME280;56358;56.328;43.992;2023-04-26T03:30:50;99360.34;;;11.56;87.44
69247;BME280;56358;56.328;43.992;2023-04-26T03:32:51;99383.44;;;11.67;87.27
69247;BME280;56358;56.328;43.992;2023-04-26T03:34:52;99395.06;;;11.76;87.26
69247;BME280;56358;56.328;43.992;2023-04-26T03:36:53;99373.59;;;11.76;86.89
69247;BME280;56358;56.328;43.992;2023-04-26T03:38:54;99374.06;;;11.71;86.74
69247;BME280;56358;56.328;43.992;2023-04-26T03:40:55;99307.97;;;11.34;86.46
69247;BME280;56358;56.328;43.992;2023-04-26T03:42:55;99359.03;;;11.60;86.50
69247;BME280;56358;56.328;43.992;2023-04-26T03:44:56;99360.94;;;11.68;87.00
69247;BME280;56358;56.328;43.992;2023-04-26T03:46:57;99381.31;;;11.79;86.58
69247;BME280;56358;56.328;43.992;2023-04-26T03:48:58;99346.91;;;11.74;86.62
69247;BME280;56358;56.328;43.992;2023-04-26T03:51:00;99366.47;;;11.84;86.24
69247;BME280;56358;56.328;43.992;2023-04-26T03:53:01;99364.94;;;11.82;86.22
69247;BME280;56358;56.328;43.992;2023-04-26T03:55:01;99341.69;;;11.72;85.93
69247;BME280;56358;56.328;43.992;2023-04-26T03:57:04;99364.28;;;11.88;85.65
69247;BME280;56358;56.328;43.992;2023-04-26T03:59:05;99361.59;;;11.88;85.36
69247;BME280;56358;56.328;43.992;2023-04-26T04:01:06;99305.88;;;11.64;85.21
69247;BME280;56358;56.328;43.992;2023-04-26T04:03:07;99346.72;;;11.94;85.64
69247;BME280;56358;56.328;43.992;2023-04-26T04:05:07;99236.81;;;11.30;85.72
69247;BME280;56358;56.328;43.992;2023-04-26T04:07:08;99330.75;;;11.92;85.23
69247;BME280;56358;56.328;43.992;2023-04-26T04:09:09;99362.28;;;12.08;85.38
69247;BME280;56358;56.328;43.992;2023-04-26T04:11:10;99353.41;;;12.07;85.06
69247;BME280;56358;56.328;43.992;2023-04-26T04:13:11;99353.41;;;12.07;85.03
69247;BME280;56358;56.328;43.992;2023-04-26T04:15:11;99345.88;;;12.11;85.15
69247;BME280;56358;56.328;43.992;2023-04-26T04:17:12;99344.63;;;12.05;85.01
69247;BME280;56358;56.328;43.992;2023-04-26T04:19:13;99347.91;;;12.17;85.41
69247;BME280;56358;56.328;43.992;2023-04-26T04:21:13;99263.63;;;11.66;84.77
69247;BME280;56358;56.328;43.992;2023-04-26T04:23:14;99259.56;;;11.62;85.07
69247;BME280;56358;56.328;43.992;2023-04-26T04:25:15;99346.72;;;12.12;85.19
69247;BME280;56358;56.328;43.992;2023-04-26T04:27:16;99340.19;;;12.14;85.24
69247;BME280;56358;56.328;43.992;2023-04-26T04:29:17;99266.69;;;11.71;85.08
69247;BME280;56358;56.328;43.992;2023-04-26T04:31:17;99291.94;;;11.86;84.87
69247;BME280;56358;56.328;43.992;2023-04-26T04:33:18;99337.34;;;12.16;85.13
69247;BME280;56358;56.328;43.992;2023-04-26T04:35:21;99261.59;;;11.68;84.88
69247;BME280;56358;56.328;43.992;2023-04-26T04:37:22;99332.50;;;12.19;85.18
69247;BME280;56358;56.328;43.992;2023-04-26T04:39:23;99333.50;;;12.18;84.65
69247;BME280;56358;56.328;43.992;2023-04-26T04:41:23;99328.44;;;12.15;85.15
69247;BME280;56358;56.328;43.992;2023-04-26T04:43:24;99296.41;;;11.96;84.94
69247;BME280;56358;56.328;43.992;2023-04-26T04:45:25;99327.94;;;12.20;85.06
69247;BME280;56358;56.328;43.992;2023-04-26T04:47:26;99320.06;;;12.18;84.83
69247;BME280;56358;56.328;43.992;2023-04-26T04:49:27;99340.22;;;12.22;84.99
69247;BME280;56358;56.328;43.992;2023-04-26T04:51:28;99238.50;;;11.75;84.66
69247;BME280;56358;56.328;43.992;2023-04-26T04:53:29;99325.69;;;12.33;84.78
69247;BME280;56358;56.328;43.992;2023-04-26T04:55:29;99327.00;;;12.29;84.83
69247;BME280;56358;56.328;43.992;2023-04-26T04:57:31;99323.16;;;12.32;84.70
69247;BME280;56358;56.328;43.992;2023-04-26T04:59:32;99327.03;;;12.37;84.64
69247;BME280;56358;56.328;43.992;2023-04-26T05:01:33;99328.41;;;12.41;84.33
69247;BME280;56358;56.328;43.992;2023-04-26T05:03:33;99324.94;;;12.49;84.48
69247;BME280;56358;56.328;43.992;2023-04-26T05:05:34;99269.84;;;12.19;84.63
69247;BME280;56358;56.328;43.992;2023-04-26T05:07:35;99327.66;;;12.57;83.89
69247;BME280;56358;56.328;43.992;2023-04-26T05:09:35;99264.66;;;12.26;83.62
69247;BME280;56358;56.328;43.992;2023-04-26T05:11:36;99260.31;;;12.24;84.65
69247;BME280;56358;56.328;43.992;2023-04-26T05:13:37;99245.53;;;12.20;83.69
69247;BME280;56358;56.328;43.992;2023-04-26T05:15:38;99320.84;;;12.71;83.81
69247;BME280;56358;56.328;43.992;2023-04-26T05:17:40;99312.88;;;12.62;83.73
69247;BME280;56358;56.328;43.992;2023-04-26T05:19:41;99323.38;;;12.73;83.37
69247;BME280;56358;56.328;43.992;2023-04-26T05:21:42;99315.47;;;12.71;82.79
69247;BME280;56358;56.328;43.992;2023-04-26T05:23:42;99329.09;;;12.78;82.64
69247;BME280;56358;56.328;43.992;2023-04-26T05:25:43;99320.88;;;12.80;83.06
69247;BME280;56358;56.328;43.992;2023-04-26T05:27:44;99317.50;;;12.86;82.91
69247;BME280;56358;56.328;43.992;2023-04-26T05:29:45;99321.06;;;12.86;82.66
69247;BME280;56358;56.328;43.992;2023-04-26T05:31:46;99326.28;;;12.88;82.19
69247;BME280;56358;56.328;43.992;2023-04-26T05:33:46;99325.06;;;12.82;82.60
69247;BME280;56358;56.328;43.992;2023-04-26T05:35:47;99243.91;;;12.36;82.01
69247;BME280;56358;56.328;43.992;2023-04-26T05:37:48;99306.41;;;12.81;81.64
69247;BME280;56358;56.328;43.992;2023-04-26T05:39:49;99317.56;;;12.94;81.60
69247;BME280;56358;56.328;43.992;2023-04-26T05:41:50;99300.25;;;12.97;81.66
69247;BME280;56358;56.328;43.992;2023-04-26T05:43:51;99319.59;;;13.08;81.26
69247;BME280;56358;56.328;43.992;2023-04-26T05:45:52;99249.06;;;12.72;80.71
69247;BME280;56358;56.328;43.992;2023-04-26T05:47:53;99255.47;;;12.79;80.19
69247;BME280;56358;56.328;43.992;2023-04-26T05:49:54;99327.53;;;13.18;79.76
69247;BME280;56358;56.328;43.992;2023-04-26T05:51:55;99309.19;;;13.22;79.80
69247;BME280;56358;56.328;43.992;2023-04-26T05:53:55;99313.59;;;13.31;80.13
69247;BME280;56358;56.328;43.992;2023-04-26T05:55:56;99278.41;;;13.24;79.79
69247;BME280;56358;56.328;43.992;2023-04-26T05:57:57;99241.06;;;12.97;78.79
69247;BME280;56358;56.328;43.992;2023-04-26T05:59:58;99306.56;;;13.47;78.61
69247;BME280;56358;56.328;43.992;2023-04-26T06:01:58;99307.59;;;13.46;78.30
69247;BME280;56358;56.328;43.992;2023-04-26T06:03:59;99318.34;;;13.54;77.83
69247;BME280;56358;56.328;43.992;2023-04-26T06:06:00;99302.72;;;13.57;77.57
69247;BME280;56358;56.328;43.992;2023-04-26T06:08:01;99298.50;;;13.55;77.81
69247;BME280;56358;56.328;43.992;2023-04-26T06:10:01;99272.25;;;13.49;77.71
69247;BME280;56358;56.328;43.992;2023-04-26T06:12:05;99311.63;;;13.74;77.67
69247;BME280;56358;56.328;43.992;2023-04-26T06:14:05;99313.47;;;13.74;77.46
69247;BME280;56358;56.328;43.992;2023-04-26T06:16:06;99308.59;;;13.78;76.75
69247;BME280;56358;56.328;43.992;2023-04-26T06:18:07;99310.13;;;13.80;77.14
69247;BME280;56358;56.328;43.992;2023-04-26T06:20:09;99312.81;;;13.88;76.81
69247;BME280;56358;56.328;43.992;2023-04-26T06:22:09;99306.91;;;13.93;76.74
69247;BME280;56358;56.328;43.992;2023-04-26T06:24:10;99283.84;;;13.74;76.73
69247;BME280;56358;56.328;43.992;2023-04-26T06:26:11;99304.38;;;13.91;76.58
69247;BME280;56358;56.328;43.992;2023-04-26T06:28:12;99230.34;;;13.63;76.38
69247;BME280;56358;56.328;43.992;2023-04-26T06:30:13;99297.63;;;14.04;75.50
69247;BME280;56358;56.328;43.992;2023-04-26T06:32:14;99288.53;;;14.13;76.38
69247;BME280;56358;56.328;43.992;2023-04-26T06:34:14;99219.72;;;13.69;75.35
69247;BME280;56358;56.328;43.992;2023-04-26T06:36:15;99292.72;;;14.24;75.59
69247;BME280;56358;56.328;43.992;2023-04-26T06:38:16;99288.66;;;14.28;75.28
69247;BME280;56358;56.328;43.992;2023-04-26T06:40:17;99288.44;;;14.38;74.90
69247;BME280;56358;56.328;43.992;2023-04-26T06:42:17;99207.41;;;13.83;74.60
69247;BME280;56358;56.328;43.992;2023-04-26T06:44:18;99237.84;;;14.00;74.48
69247;BME280;56358;56.328;43.992;2023-04-26T06:46:19;99285.59;;;14.31;74.82
69247;BME280;56358;56.328;43.992;2023-04-26T06:48:19;99271.75;;;14.34;74.49
69247;BME280;56358;56.328;43.992;2023-04-26T06:50:20;99285.25;;;14.34;74.04
69247;BME280;56358;56.328;43.992;2023-04-26T06:52:21;99175.09;;;13.75;74.42
69247;BME280;56358;56.328;43.992;2023-04-26T06:54:27;99275.78;;;14.47;74.05
69247;BME280;56358;56.328;43.992;2023-04-26T06:56:28;99279.28;;;14.55;74.08
69247;BME280;56358;56.328;43.992;2023-04-26T06:58:28;99266.13;;;14.61;73.24
69247;BME280;56358;56.328;43.992;2023-04-26T07:00:29;99266.63;;;14.64;72.80
69247;BME280;56358;56.328;43.992;2023-04-26T07:02:30;99267.38;;;14.81;72.64
69247;BME280;56358;56.328;43.992;2023-04-26T07:04:31;99215.69;;;14.61;71.92
69247;BME280;56358;56.328;43.992;2023-04-26T07:06:32;99286.59;;;15.09;71.56
69247;BME280;56358;56.328;43.992;2023-04-26T07:08:33;99274.47;;;15.14;70.98
69247;BME280;56358;56.328;43.992;2023-04-26T07:10:33;99221.19;;;14.84;70.68
69247;BME280;56358;56.328;43.992;2023-04-26T07:12:34;99219.19;;;15.01;70.88
69247;BME280;56358;56.328;43.992;2023-04-26T07:14:35;99227.19;;;15.18;70.62
69247;BME280;56358;56.328;43.992;2023-04-26T07:16:39;99270.59;;;15.54;69.28
69247;BME280;56358;56.328;43.992;2023-04-26T07:18:40;99267.50;;;15.42;69.74
69247;BME280;56358;56.328;43.992;2023-04-26T07:20:41;99214.59;;;15.10;69.86
69247;BME280;56358;56.328;43.992;2023-04-26T07:22:41;99265.72;;;15.50;69.37
69247;BME280;56358;56.328;43.992;2023-04-26T07:24:42;99261.22;;;15.27;69.44
69247;BME280;56358;56.328;43.992;2023-04-26T07:26:43;99248.94;;;15.16;68.79
69247;BME280;56358;56.328;43.992;2023-04-26T07:28:44;99267.31;;;15.21;69.60
69247;BME280;56358;56.328;43.992;2023-04-26T07:30:44;99270.25;;;15.11;70.19
69247;BME280;56358;56.328;43.992;2023-04-26T07:32:45;99275.88;;;15.01;70.52
69247;BME280;56358;56.328;43.992;2023-04-26T07:34:46;99252.88;;;14.82;70.84
69247;BME280;56358;56.328;43.992;2023-04-26T07:36:46;99270.03;;;14.89;71.43
69247;BME280;56358;56.328;43.992;2023-04-26T07:38:47;99143.72;;;13.99;71.83
69247;BME280;56358;56.328;43.992;2023-04-26T07:40:48;99271.94;;;14.81;72.18
69247;BME280;56358;56.328;43.992;2023-04-26T07:42:49;99180.78;;;14.36;71.99
69247;BME280;56358;56.328;43.992;2023-04-26T07:44:50;99142.59;;;14.24;71.98
69247;BME280;56358;56.328;43.992;2023-04-26T07:46:51;99256.78;;;15.03;71.80
69247;BME280;56358;56.328;43.992;2023-04-26T07:48:52;99253.75;;;15.06;71.21
69247;BME280;56358;56.328;43.992;2023-04-26T07:50:52;99261.38;;;15.25;71.23
69247;BME280;56358;56.328;43.992;2023-04-26T07:52:54;99258.50;;;15.27;70.78
69247;BME280;56358;56.328;43.992;2023-04-26T07:54:55;99221.56;;;15.04;71.28
69247;BME280;56358;56.328;43.992;2023-04-26T07:56:56;99259.28;;;15.36;70.91
69247;BME280;56358;56.328;43.992;2023-04-26T07:58:57;99254.25;;;15.33;70.75
69247;BME280;56358;56.328;43.992;2023-04-26T08:00:58;99228.31;;;15.23;70.56
69247;BME280;56358;56.328;43.992;2023-04-26T08:02:59;99248.97;;;15.39;70.48
69247;BME280;56358;56.328;43.992;2023-04-26T08:05:00;99230.13;;;15.31;69.99
69247;BME280;56358;56.328;43.992;2023-04-26T08:07:01;99255.59;;;15.52;69.75
69247;BME280;56358;56.328;43.992;2023-04-26T08:09:02;99258.13;;;15.53;69.77
69247;BME280;56358;56.328;43.992;2023-04-26T08:11:06;99260.56;;;15.63;69.27
69247;BME280;56358;56.328;43.992;2023-04-26T08:13:07;99255.00;;;15.65;69.37
69247;BME280;56358;56.328;43.992;2023-04-26T08:15:08;99256.75;;;15.72;69.30
69247;BME280;56358;56.328;43.992;2023-04-26T08:17:09;99256.22;;;15.77;67.95
69247;BME280;56358;56.328;43.992;2023-04-26T08:19:11;99257.47;;;15.89;67.76
69247;BME280;56358;56.328;43.992;2023-04-26T08:21:11;99249.66;;;15.95;66.92
69247;BME280;56358;56.328;43.992;2023-04-26T08:23:12;99254.34;;;16.01;66.61
69247;BME280;56358;56.328;43.992;2023-04-26T08:25:14;99250.88;;;16.07;66.62
69247;BME280;56358;56.328;43.992;2023-04-26T08:27:15;99209.94;;;15.95;65.91
69247;BME280;56358;56.328;43.992;2023-04-26T08:29:16;99241.47;;;16.33;65.54
69247;BME280;56358;56.328;43.992;2023-04-26T08:31:18;99254.41;;;16.52;65.75
69247;BME280;56358;56.328;43.992;2023-04-26T08:33:18;99242.75;;;16.67;65.13
69247;BME280;56358;56.328;43.992;2023-04-26T08:35:19;99243.16;;;16.85;63.46
69247;BME280;56358;56.328;43.992;2023-04-26T08:37:21;99220.13;;;16.89;62.05
69247;BME280;56358;56.328;43.992;2023-04-26T08:39:21;99195.38;;;16.92;61.72
69247;BME280;56358;56.328;43.992;2023-04-26T08:41:22;99226.00;;;17.36;60.98
69247;BME280;56358;56.328;43.992;2023-04-26T08:43:24;99229.50;;;17.58;60.58
69247;BME280;56358;56.328;43.992;2023-04-26T08:45:26;99223.25;;;17.86;59.95
69247;BME280;56358;56.328;43.992;2023-04-26T08:47:28;99218.31;;;18.25;60.21
69247;BME280;56358;56.328;43.992;2023-04-26T08:51:43;99224.03;;;18.37;59.26
69247;BME280;56358;56.328;43.992;2023-04-26T08:53:45;99202.31;;;18.37;58.26
69247;BME280;56358;56.328;43.992;2023-04-26T08:55:48;99199.09;;;18.75;57.71
69247;BME280;56358;56.328;43.992;2023-04-26T08:57:49;99188.69;;;18.85;55.84
69247;BME280;56358;56.328;43.992;2023-04-26T08:59:50;99184.81;;;19.08;55.66
69247;BME280;56358;56.328;43.992;2023-04-26T09:01:52;99192.75;;;19.36;52.95
69247;BME280;56358;56.328;43.992;2023-04-26T09:03:54;99140.91;;;19.18;51.81
69247;BME280;56358;56.328;43.992;2023-04-26T09:05:56;99143.44;;;19.19;51.30
69247;BME280;56358;56.328;43.992;2023-04-26T09:08:00;99195.47;;;19.63;51.54
69247;BME280;56358;56.328;43.992;2023-04-26T09:10:04;99190.69;;;19.38;51.68
69247;BME280;56358;56.328;43.992;2023-04-26T09:12:07;99201.56;;;19.58;50.28
69247;BME280;56358;56.328;43.992;2023-04-26T09:14:08;99129.22;;;19.37;49.64
69247;BME280;56358;56.328;43.992;2023-04-26T09:16:09;99198.59;;;20.07;48.58
69247;BME280;56358;56.328;43.992;2023-04-26T09:18:17;99186.78;;;20.26;46.52
69247;BME280;56358;56.328;43.992;2023-04-26T09:22:35;99173.66;;;20.62;46.39
69247;BME280;56358;56.328;43.992;2023-04-26T09:24:49;99172.66;;;20.56;45.13
69247;BME280;56358;56.328;43.992;2023-04-26T09:27:09;99176.72;;;20.34;46.17
69247;BME280;56358;56.328;43.992;2023-04-26T09:29:15;99158.84;;;20.51;46.05
69247;BME280;56358;56.328;43.992;2023-04-26T09:31:40;99151.75;;;21.21;44.78
69247;BME280;56358;56.328;43.992;2023-04-26T09:33:57;99112.50;;;21.47;42.69
69247;BME280;56358;56.328;43.992;2023-04-26T09:36:10;99132.78;;;22.51;42.05
69247;BME280;56358;56.328;43.992;2023-04-26T09:38:16;99146.44;;;23.23;40.82
69247;BME280;56358;56.328;43.992;2023-04-26T09:40:19;99147.66;;;22.55;40.65
69247;BME280;56358;56.328;43.992;2023-04-26T09:42:20;99119.84;;;21.90;40.50
69247;BME280;56358;56.328;43.992;2023-04-26T09:44:24;99133.94;;;21.87;41.02
69247;BME280;56358;56.328;43.992;2023-04-26T09:46:25;99143.00;;;21.63;41.75
69247;BME280;56358;56.328;43.992;2023-04-26T09:48:33;99141.50;;;21.67;42.20
69247;BME280;56358;56.328;43.992;2023-04-26T09:50:36;99100.22;;;21.82;41.44
69247;BME280;56358;56.328;43.992;2023-04-26T09:52:42;99141.72;;;21.65;41.86
69247;BME280;56358;56.328;43.992;2023-04-26T09:54:53;99135.03;;;21.10;42.71
69247;BME280;56358;56.328;43.992;2023-04-26T09:57:00;99137.81;;;20.65;43.98
69247;BME280;56358;56.328;43.992;2023-04-26T09:59:02;99155.22;;;20.25;45.31
69247;BME280;56358;56.328;43.992;2023-04-26T10:01:06;99164.28;;;19.99;45.73
69247;BME280;56358;56.328;43.992;2023-04-26T10:03:07;99167.03;;;19.66;47.80
69247;BME280;56358;56.328;43.992;2023-04-26T10:05:09;99184.34;;;18.91;50.11
69247;BME280;56358;56.328;43.992;2023-04-26T10:07:11;99122.22;;;18.54;48.75
69247;BME280;56358;56.328;43.992;2023-04-26T10:09:12;99158.13;;;18.63;48.09
69247;BME280;56358;56.328;43.992;2023-04-26T10:11:13;99135.34;;;18.44;50.79
69247;BME280;56358;56.328;43.992;2023-04-26T10:13:14;99156.25;;;18.50;50.97
69247;BME280;56358;56.328;43.992;2023-04-26T10:15:18;99161.50;;;18.72;49.08
69247;BME280;56358;56.328;43.992;2023-04-26T10:17:18;99080.91;;;18.72;47.79
69247;BME280;56358;56.328;43.992;2023-04-26T10:19:21;99150.38;;;20.27;49.97
69247;BME280;56358;56.328;43.992;2023-04-26T10:21:27;99149.59;;;21.48;44.08
69247;BME280;56358;56.328;43.992;2023-04-26T10:23:30;99145.91;;;22.42;42.06
69247;BME280;56358;56.328;43.992;2023-04-26T10:25:36;99149.09;;;22.20;42.58
69247;BME280;56358;56.328;43.992;2023-04-26T10:32:07;99130.50;;;20.66;46.59
69247;BME280;56358;56.328;43.992;2023-04-26T10:34:20;99141.78;;;20.24;46.58
69247;BME280;56358;56.328;43.992;2023-04-26T10:36:21;99185.03;;;19.87;45.93
69247;BME280;56358;56.328;43.992;2023-04-26T10:38:22;99178.13;;;19.31;47.41
69247;BME280;56358;56.328;43.992;2023-04-26T10:40:30;99186.41;;;18.82;49.09
69247;BME280;56358;56.328;43.992;2023-04-26T10:42:31;99121.53;;;17.90;50.50
69247;BME280;56358;56.328;43.992;2023-04-26T10:44:38;99196.53;;;17.76;51.57